Time;durP1;ratioP1;P1;durP2;ratioP2;P2;SDS_P1;SDS_P2;PMS_P1;PMS_P2;Temp;Humidity;BMP_temperature;BMP_pressure;BME280_temperature;BME280_humidity;BME280_pressure;Samples;Min_cycle;Max_cycle;Signal;HPM_P1;HPM_P2
2022/01/04 09:02:49;;;;;;;2.15;0.55;;;;;;;6.54;100.00;99443.59;5742621;23;20079;-75
2022/01/04 09:05:14;;;;;;;6.03;0.77;;;;;;;6.47;100.00;99451.25;4906700;29;20048;-76
2022/01/04 09:07:40;;;;;;;5.10;1.10;;;;;;;6.45;100.00;99442.72;4888102;29;20087;-77
2022/01/04 09:10:06;;;;;;;8.50;0.70;;;;;;;6.21;100.00;99447.88;4908705;29;20698;-77
2022/01/04 09:12:57;;;;;;;3.92;0.68;;;;;;;6.11;100.00;99430.44;4903973;29;20056;-77
2022/01/04 09:15:46;;;;;;;3.30;0.50;;;;;;;6.20;100.00;99462.75;4906668;29;20519;-76
2022/01/04 09:20:57;;;;;;;1.63;0.30;;;;;;;6.19;100.00;99453.25;4928328;29;20105;-76
2022/01/04 09:23:22;;;;;;;2.58;0.40;;;;;;;6.24;100.00;99465.88;4896792;29;20456;-76
2022/01/04 09:25:49;;;;;;;3.50;0.90;;;;;;;6.16;100.00;99467.50;4924256;29;20036;-76
2022/01/04 09:28:15;;;;;;;0.50;0.30;;;;;;;6.05;100.00;99445.97;4905578;29;20063;-76
2022/01/04 09:30:43;;;;;;;1.70;0.30;;;;;;;6.18;100.00;99473.41;4929049;29;20062;-77
2022/01/04 09:33:09;;;;;;;2.90;0.40;;;;;;;6.15;100.00;99472.88;4928024;29;20740;-76
2022/01/04 09:35:36;;;;;;;1.90;0.50;;;;;;;6.09;100.00;99476.94;4912012;29;20047;-76
2022/01/04 09:38:03;;;;;;;3.00;1.02;;;;;;;5.98;100.00;99466.72;4930418;29;20753;-76
2022/01/04 09:40:28;;;;;;;1.00;0.30;;;;;;;6.10;100.00;99473.34;4930629;29;20040;-76
2022/01/04 09:42:54;;;;;;;0.57;0.32;;;;;;;6.04;100.00;99466.09;4930880;29;20827;-76
2022/01/04 09:45:20;;;;;;;2.53;0.43;;;;;;;6.07;100.00;99481.50;4931286;29;21417;-76
2022/01/04 09:47:45;;;;;;;2.03;1.00;;;;;;;5.93;100.00;99474.19;4931949;29;20115;-76
2022/01/04 09:50:11;;;;;;;2.92;0.70;;;;;;;6.04;100.00;99489.66;4916504;29;20039;-77
2022/01/04 09:52:42;;;;;;;0.75;0.35;;;;;;;6.08;100.00;99491.00;4927344;29;20110;-76
2022/01/04 09:55:09;;;;;;;1.23;0.35;;;;;;;5.99;100.00;99484.09;4926427;29;20043;-76
2022/01/04 09:57:35;;;;;;;6.45;0.65;;;;;;;5.90;100.00;99498.03;4929609;29;20035;-76
2022/01/04 10:00:01;;;;;;;0.85;0.20;;;;;;;5.78;100.00;99500.91;4930769;29;20040;-76
2022/01/04 10:02:30;;;;;;;0.35;0.30;;;;;;;5.71;100.00;99497.25;4928091;29;20238;-75
2022/01/04 10:05:11;;;;;;;1.20;0.40;;;;;;;5.77;100.00;99501.09;4904325;29;20075;-76
2022/01/04 10:07:38;;;;;;;1.48;0.32;;;;;;;5.88;100.00;99508.69;4904792;29;20504;-76
2022/01/04 10:10:04;;;;;;;6.72;0.70;;;;;;;5.97;100.00;99506.97;4904246;29;20475;-76
2022/01/04 10:12:55;;;;;;;1.42;0.28;;;;;;;6.01;100.00;99508.31;4892612;29;20039;-76
2022/01/04 10:15:42;;;;;;;2.47;0.80;;;;;;;6.12;100.00;99504.63;4902531;29;20032;-76
2022/01/04 10:18:13;;;;;;;2.63;0.98;;;;;;;6.13;100.00;99501.84;4888736;29;20028;-76
2022/01/04 10:20:39;;;;;;;0.43;0.20;;;;;;;5.98;100.00;99483.25;4904970;29;20139;-76
2022/01/04 10:23:10;;;;;;;3.85;0.50;;;;;;;6.03;100.00;99500.28;4901867;29;20086;-76
2022/01/04 10:25:36;;;;;;;;;;;;;;;6.02;100.00;99509.13;4902230;29;20052;-77
2022/01/04 10:28:01;;;;;;;2.35;0.73;;;;;;;6.02;100.00;99507.34;4900752;29;19965;-76
2022/01/04 10:30:35;;;;;;;0.50;0.30;;;;;;;5.81;100.00;99473.59;4900878;29;20091;-77
2022/01/04 10:33:04;;;;;;;1.77;0.43;;;;;;;6.00;100.00;99503.22;4906155;29;20040;-76
2022/01/04 10:35:31;;;;;;;0.55;0.25;;;;;;;6.07;100.00;99505.06;4905189;29;20429;-76
2022/01/04 10:38:09;;;;;;;1.55;0.47;;;;;;;6.14;100.00;99498.25;4905293;29;20031;-77
2022/01/04 10:40:35;;;;;;;1.00;0.43;;;;;;;6.17;100.00;99492.69;4889911;29;20040;-76
2022/01/04 10:43:18;;;;;;;3.20;0.55;;;;;;;6.33;100.00;99505.06;4898589;29;20044;-76
2022/01/04 10:45:45;;;;;;;1.63;0.20;;;;;;;5.95;100.00;99501.06;4904214;29;20147;-76
2022/01/04 10:48:15;;;;;;;2.38;0.45;;;;;;;6.12;100.00;99505.44;4891543;29;20040;-76
2022/01/04 10:50:41;;;;;;;1.85;0.57;;;;;;;6.13;100.00;99511.50;4904615;29;20039;-76
2022/01/04 10:53:15;;;;;;;3.70;0.45;;;;;;;6.02;100.00;99515.19;4893424;29;20144;-77
2022/01/04 10:55:41;;;;;;;5.05;0.75;;;;;;;5.96;100.00;99511.38;4909716;29;20741;-77
2022/01/04 10:58:06;;;;;;;2.92;0.50;;;;;;;5.89;100.00;99512.13;4886409;29;20146;-77
2022/01/04 11:00:32;;;;;;;4.10;0.50;;;;;;;5.80;100.00;99505.19;4903588;29;20052;-76
2022/01/04 11:03:00;;;;;;;6.63;0.77;;;;;;;5.94;100.00;99507.25;4906712;29;20052;-76
2022/01/04 11:05:26;;;;;;;3.13;0.40;;;;;;;6.03;100.00;99495.91;4907735;29;20030;-76
2022/01/04 11:08:05;;;;;;;1.83;0.32;;;;;;;6.10;100.00;99494.31;4900905;29;20028;-77
2022/01/04 11:10:34;;;;;;;4.22;0.52;;;;;;;5.99;100.00;99489.31;4883336;29;20101;-76
2022/01/04 11:13:00;;;;;;;4.47;0.63;;;;;;;5.95;100.00;99496.66;4893118;29;20039;-76
2022/01/04 11:15:27;;;;;;;4.03;0.75;;;;;;;5.88;100.00;99497.38;4905977;29;20040;-76
2022/01/04 11:17:52;;;;;;;3.13;0.50;;;;;;;5.83;99.64;99497.03;4901716;29;20024;-77
2022/01/04 11:20:18;;;;;;;0.80;0.20;;;;;;;5.85;99.47;99497.69;4887396;29;20037;-76
2022/01/04 11:22:46;;;;;;;2.38;0.40;;;;;;;5.80;98.47;99473.78;4906757;29;20047;-75
2022/01/04 11:25:14;;;;;;;7.65;0.60;;;;;;;5.95;98.19;99501.88;4904412;29;20040;-76
2022/01/04 11:27:41;;;;;;;3.42;0.68;;;;;;;5.84;97.20;99485.59;4904182;29;20047;-76
2022/01/04 11:30:13;;;;;;;0.90;0.35;;;;;;;6.02;97.88;99509.13;4884980;29;20496;-76
2022/01/04 11:32:43;;;;;;;0.70;0.70;;;;;;;6.09;96.96;99521.44;4903409;29;20556;-77
2022/01/04 11:35:19;;;;;;;3.33;0.43;;;;;;;6.20;97.25;99530.03;4901963;29;20028;-77
2022/01/04 11:37:58;;;;;;;5.03;0.60;;;;;;;6.20;96.85;99516.94;4899698;29;20040;-76
2022/01/04 11:40:31;;;;;;;2.60;0.50;;;;;;;6.28;96.59;99528.28;4885682;29;20035;-76
2022/01/04 11:42:58;;;;;;;4.47;0.65;;;;;;;6.28;96.08;99517.81;4898166;29;20024;-77
2022/01/04 11:45:51;;;;;;;2.03;0.90;;;;;;;6.42;94.76;99521.66;4903401;29;20043;-77
2022/01/04 11:48:39;;;;;;;2.78;0.55;;;;;;;6.32;93.01;99506.06;4886919;29;20441;-76
2022/01/04 11:51:29;;;;;;;2.42;0.52;;;;;;;6.62;92.66;99517.03;4897202;29;20020;-76
2022/01/04 11:54:15;;;;;;;0.40;0.20;;;;;;;6.83;92.66;99518.41;4889147;29;20035;-76
2022/01/04 11:57:06;;;;;;;7.20;0.90;;;;;;;6.94;91.65;99513.69;4882159;29;20120;-76
2022/01/04 11:59:37;;;;;;;2.17;0.75;;;;;;;6.80;90.62;99503.81;4904266;29;20052;-76
2022/01/04 12:02:35;;;;;;;1.40;0.40;;;;;;;7.11;91.21;99525.06;4903646;29;20040;-76
2022/01/04 12:05:13;;;;;;;2.10;0.50;;;;;;;7.25;90.64;99528.88;4902820;29;20057;-76
2022/01/04 12:07:38;;;;;;;1.73;0.30;;;;;;;7.27;90.63;99529.50;4901449;29;20027;-76
2022/01/04 12:10:18;;;;;;;3.67;1.25;;;;;;;7.10;88.71;99530.44;4903249;29;20042;-76
2022/01/04 12:13:03;;;;;;;4.10;0.30;;;;;;;6.93;88.61;99535.66;4905123;29;20035;-76
2022/01/04 12:15:35;;;;;;;3.47;0.63;;;;;;;6.78;89.20;99542.47;4904304;29;20035;-76
2022/01/04 12:18:01;;;;;;;;;;;;;;;6.65;89.62;99542.09;4890585;29;20051;-76
2022/01/04 12:20:41;;;;;;;3.88;0.30;;;;;;;6.52;89.64;99545.97;4904461;29;19926;-76
2022/01/04 12:23:25;;;;;;;2.53;0.53;;;;;;;6.39;90.46;99529.84;4904716;29;20048;-76
2022/01/04 12:26:03;;;;;;;5.97;0.68;;;;;;;6.37;89.83;99529.16;4905980;29;20114;-77
2022/01/04 12:28:36;;;;;;;1.55;0.43;;;;;;;6.32;90.20;99507.84;4886083;29;20113;-76
2022/01/04 12:31:13;;;;;;;4.55;0.98;;;;;;;6.43;89.87;99533.78;4891268;29;20036;-76
2022/01/04 12:33:53;;;;;;;2.22;0.22;;;;;;;6.40;89.44;99526.22;4901754;29;20027;-76
2022/01/04 12:36:42;;;;;;;4.15;0.50;;;;;;;6.48;88.12;99531.50;4904368;29;20531;-76
2022/01/04 12:39:13;;;;;;;1.80;0.40;;;;;;;6.38;86.90;99525.59;4900436;29;20274;-77
2022/01/04 12:41:40;;;;;;;1.50;0.30;;;;;;;6.35;86.14;99531.13;4909585;29;20548;-76
2022/01/04 12:44:07;;;;;;;6.05;0.63;;;;;;;6.35;87.70;99546.84;4902710;29;20036;-76
2022/01/04 12:46:38;;;;;;;1.30;0.30;;;;;;;6.36;87.43;99548.50;4893438;29;20032;-76
2022/01/04 12:49:08;;;;;;;4.50;0.82;;;;;;;6.29;87.38;99545.69;4905074;29;20057;-76
2022/01/04 12:51:37;;;;;;;4.93;0.68;;;;;;;6.30;87.45;99534.22;4902856;29;20480;-76
2022/01/04 12:54:06;;;;;;;1.80;0.50;;;;;;;6.23;87.78;99542.81;4891815;29;20107;-76
2022/01/04 12:56:32;;;;;;;1.75;0.30;;;;;;;6.21;88.15;99550.84;4883021;29;20043;-76
2022/01/04 12:58:58;;;;;;;2.75;0.60;;;;;;;6.05;88.00;99535.81;4905959;29;20119;-76
2022/01/04 13:01:29;;;;;;;1.70;0.30;;;;;;;6.13;88.09;99564.72;4891741;29;20051;-76
2022/01/04 13:03:56;;;;;;;0.40;0.30;;;;;;;6.10;88.39;99562.41;4906177;29;20068;-76
2022/01/04 13:06:23;;;;;;;2.15;0.32;;;;;;;6.13;88.72;99559.47;4888862;29;20066;-76
2022/01/04 13:08:56;;;;;;;1.98;0.47;;;;;;;6.08;88.12;99556.50;4887256;29;20032;-76
2022/01/04 13:11:22;;;;;;;1.55;0.57;;;;;;;6.17;88.60;99558.19;4904275;29;20498;-76
2022/01/04 13:14:01;;;;;;;3.90;0.40;;;;;;;6.08;87.93;99545.19;4898468;29;20383;-76
2022/01/04 13:16:29;;;;;;;6.45;0.68;;;;;;;6.06;87.89;99547.16;4874371;29;20220;-76
2022/01/04 13:19:13;;;;;;;6.18;1.10;;;;;;;5.98;87.87;99535.63;4879048;29;20134;-76
2022/01/04 13:21:39;;;;;;;1.38;0.45;;;;;;;6.08;87.85;99551.25;4899153;29;20025;-76
2022/01/04 13:24:05;;;;;;;2.50;0.43;;;;;;;5.93;87.89;99543.09;4901559;29;20040;-76
2022/01/04 13:26:30;;;;;;;7.88;0.57;;;;;;;5.97;88.20;99543.66;4883102;29;20063;-76
2022/01/04 13:28:58;;;;;;;7.47;0.98;;;;;;;6.00;88.52;99556.44;4899129;29;20051;-76
2022/01/04 13:31:23;;;;;;;1.60;0.30;;;;;;;5.91;88.18;99539.78;4879675;29;20499;-76
2022/01/04 13:33:54;;;;;;;3.50;0.68;;;;;;;6.11;88.75;99542.25;4901841;29;20069;-76
2022/01/04 13:36:25;;;;;;;2.35;0.50;;;;;;;6.04;88.72;99523.72;4902201;29;20043;-76
2022/01/04 13:38:57;;;;;;;4.05;0.60;;;;;;;6.10;88.01;99544.06;4905453;29;20028;-76
2022/01/04 13:41:37;;;;;;;3.15;0.43;;;;;;;6.06;88.53;99527.00;4900620;29;20099;-76
2022/01/04 13:44:06;;;;;;;2.10;0.88;;;;;;;6.11;88.86;99532.59;4902232;29;20087;-76
2022/01/04 13:46:34;;;;;;;4.22;0.40;;;;;;;6.04;88.85;99522.91;4890927;29;20559;-76
2022/01/04 13:49:00;;;;;;;2.38;0.45;;;;;;;5.99;89.20;99528.59;4902168;29;20039;-76
2022/01/04 13:51:31;;;;;;;6.32;1.58;;;;;;;6.07;89.57;99522.59;4883895;29;20127;-76
2022/01/04 13:53:59;;;;;;;8.68;0.88;;;;;;;6.10;89.57;99527.53;4885184;29;20028;-76
2022/01/04 13:56:30;;;;;;;2.03;0.75;;;;;;;6.05;89.03;99525.34;4886292;29;20039;-76
2022/01/04 13:58:58;;;;;;;6.35;0.90;;;;;;;6.09;89.05;99531.94;4888573;29;20598;-76
2022/01/04 14:01:45;;;;;;;4.22;1.05;;;;;;;6.07;89.16;99528.63;4905887;29;20032;-76
2022/01/04 14:04:23;;;;;;;4.18;0.60;;;;;;;5.99;89.20;99520.75;4901907;29;20608;-77
2022/01/04 14:06:55;;;;;;;1.30;0.50;;;;;;;6.05;90.42;99509.63;4902781;29;20031;-77
2022/01/04 14:09:26;;;;;;;4.85;0.93;;;;;;;6.06;89.65;99500.81;4872913;29;20054;-76
2022/01/04 14:12:05;;;;;;;2.83;0.73;;;;;;;6.11;89.05;99518.69;4891859;29;20029;-76
2022/01/04 14:14:48;;;;;;;2.67;0.90;;;;;;;6.12;89.25;99520.34;4901141;29;20080;-77
2022/01/04 14:17:23;;;;;;;1.83;0.40;;;;;;;6.10;89.81;99522.31;4903536;29;20039;-76
2022/01/04 14:19:52;;;;;;;2.15;0.40;;;;;;;6.10;89.90;99517.88;4885327;29;20032;-76
2022/01/04 14:22:22;;;;;;;1.08;0.40;;;;;;;6.04;90.39;99531.56;4900462;29;20532;-76
2022/01/04 14:24:50;;;;;;;1.27;0.30;;;;;;;6.01;88.98;99531.91;4902751;29;20028;-76
2022/01/04 14:27:15;;;;;;;2.50;0.68;;;;;;;5.97;89.45;99539.22;4899197;29;21089;-76
2022/01/04 14:29:44;;;;;;;3.30;0.73;;;;;;;5.88;88.82;99539.25;4901096;29;20039;-76
2022/01/04 14:32:29;;;;;;;4.90;0.77;;;;;;;5.74;88.90;99536.22;4880105;29;20040;-76
2022/01/04 14:34:57;;;;;;;4.30;1.02;;;;;;;5.63;89.44;99540.88;4900358;29;20643;-76
2022/01/04 14:37:23;;;;;;;2.75;1.33;;;;;;;5.53;89.69;99546.16;4902175;29;20484;-76
2022/01/04 14:39:50;;;;;;;7.90;1.20;;;;;;;5.49;90.65;99537.00;4900563;29;20043;-76
2022/01/04 14:42:15;;;;;;;2.55;0.60;;;;;;;5.41;90.84;99544.75;4899413;29;20032;-76
2022/01/04 14:44:41;;;;;;;3.22;0.70;;;;;;;5.28;90.62;99547.72;4891414;29;20031;-76
2022/01/04 14:47:06;;;;;;;3.70;0.80;;;;;;;5.25;91.16;99553.28;4888214;29;20044;-76
2022/01/04 14:49:34;;;;;;;2.63;0.68;;;;;;;5.11;90.95;99547.53;4891208;29;20063;-76
2022/01/04 14:52:01;;;;;;;4.57;0.63;;;;;;;5.00;91.01;99552.16;4900688;29;20160;-76
2022/01/04 14:54:27;;;;;;;2.78;0.55;;;;;;;4.92;91.94;99548.50;4890315;29;20044;-76
2022/01/04 14:56:52;;;;;;;2.03;0.75;;;;;;;4.77;92.17;99549.09;4905696;29;20032;-76
2022/01/04 14:59:17;;;;;;;3.55;1.08;;;;;;;4.72;92.04;99552.16;4900374;29;20078;-76
2022/01/04 15:01:43;;;;;;;3.72;0.70;;;;;;;4.65;92.99;99561.53;4899513;29;20063;-76
2022/01/04 15:04:10;;;;;;;3.60;0.80;;;;;;;4.49;93.30;99536.84;4890317;29;20167;-76
2022/01/04 15:06:36;;;;;;;6.00;1.05;;;;;;;4.58;93.30;99550.84;4903914;29;20071;-76
2022/01/04 15:09:02;;;;;;;2.17;0.50;;;;;;;4.52;93.64;99547.00;4871006;29;20032;-77
2022/01/04 15:11:30;;;;;;;4.68;0.60;;;;;;;4.49;93.97;99547.28;4901893;29;20028;-77
2022/01/04 15:13:57;;;;;;;5.13;0.77;;;;;;;4.35;94.50;99549.53;4904016;29;20536;-76
2022/01/04 15:16:23;;;;;;;8.02;0.90;;;;;;;4.25;94.77;99541.72;4886472;29;20031;-76
2022/01/04 15:18:49;;;;;;;2.17;0.40;;;;;;;4.33;94.82;99560.09;4877285;29;20048;-76
2022/01/04 15:21:16;;;;;;;2.70;1.00;;;;;;;4.36;95.63;99562.44;4882916;29;20197;-76
2022/01/04 15:23:41;;;;;;;3.65;0.50;;;;;;;4.26;95.95;99540.75;4901253;29;20028;-76
2022/01/04 15:26:07;;;;;;;1.95;0.93;;;;;;;4.39;96.29;99563.97;4872772;29;20357;-76
2022/01/04 15:28:34;;;;;;;2.17;0.60;;;;;;;4.37;96.17;99563.28;4883597;29;20028;-76
2022/01/04 15:31:00;;;;;;;7.60;1.27;;;;;;;4.16;96.13;99543.41;4894990;29;20310;-76
2022/01/04 15:33:26;;;;;;;7.78;1.15;;;;;;;4.27;95.48;99578.97;4909747;29;20377;-77
2022/01/04 15:35:51;;;;;;;7.63;1.52;;;;;;;4.21;96.05;99579.53;4902608;29;20038;-76
2022/01/04 15:38:16;;;;;;;6.57;1.13;;;;;;;4.10;95.27;99589.16;4908333;29;20058;-77
2022/01/04 15:40:43;;;;;;;4.53;0.82;;;;;;;4.05;95.43;99591.38;4891981;29;20039;-76
2022/01/04 15:43:09;;;;;;;3.30;0.80;;;;;;;3.98;95.63;99584.22;4907250;29;20087;-76
2022/01/04 15:45:35;;;;;;;4.75;0.85;;;;;;;3.92;95.93;99588.22;4907566;29;20031;-76
2022/01/04 15:48:01;;;;;;;3.13;0.50;;;;;;;3.65;95.98;99558.41;4907264;29;20370;-76
2022/01/04 15:50:27;;;;;;;1.23;0.50;;;;;;;3.73;95.98;99590.84;4901836;29;20087;-76
2022/01/04 15:52:53;;;;;;;4.07;0.70;;;;;;;3.73;96.20;99609.09;4906228;29;20041;-76
2022/01/04 15:55:22;;;;;;;0.75;0.45;;;;;;;3.67;96.22;99613.88;4902672;29;20108;-77
2022/01/04 15:57:48;;;;;;;4.47;1.40;;;;;;;3.65;95.48;99621.03;4886181;29;20044;-77
2022/01/04 16:00:15;;;;;;;22.45;8.43;;;;;;;3.43;95.60;99605.63;4901882;29;20047;-77
2022/01/04 16:02:41;;;;;;;6.70;2.85;;;;;;;3.59;95.71;99621.56;4904120;29;20063;-76
2022/01/04 16:05:08;;;;;;;5.20;1.45;;;;;;;3.62;96.70;99625.69;4892582;29;20068;-76
2022/01/04 16:07:34;;;;;;;6.15;1.45;;;;;;;3.55;96.35;99628.03;4909186;29;20058;-76
2022/01/04 16:10:00;;;;;;;6.90;1.63;;;;;;;3.46;96.83;99631.41;4905114;29;20162;-76
2022/01/04 16:12:26;;;;;;;5.45;1.17;;;;;;;3.41;96.06;99628.41;4895705;29;20032;-77
2022/01/04 16:14:54;;;;;;;2.85;1.08;;;;;;;3.52;96.81;99651.75;4903865;29;20036;-77
2022/01/04 16:22:29;;;;;;;3.58;1.20;;;;;;;3.43;96.87;99656.00;4901936;29;20076;-76
2022/01/04 16:24:57;;;;;;;4.68;1.38;;;;;;;3.46;96.34;99652.28;4904572;29;20036;-76
2022/01/04 16:27:29;;;;;;;2.72;0.85;;;;;;;3.42;97.20;99645.69;4906482;29;20067;-78
2022/01/04 16:29:56;;;;;;;7.38;1.52;;;;;;;3.33;96.45;99654.31;4905173;29;20027;-76
2022/01/04 16:32:21;;;;;;;2.80;0.55;;;;;;;3.29;96.71;99665.03;4883366;29;20032;-76
2022/01/04 16:34:47;;;;;;;6.18;1.30;;;;;;;3.26;95.76;99652.22;4892331;29;20040;-76
2022/01/04 16:37:12;;;;;;;2.75;0.70;;;;;;;3.29;95.38;99656.38;4903960;29;20024;-77
2022/01/04 16:39:38;;;;;;;2.67;0.98;;;;;;;3.27;96.03;99659.09;4905451;29;20492;-77
2022/01/04 16:42:03;;;;;;;4.18;0.77;;;;;;;3.26;95.13;99652.22;4890362;29;20544;-77
2022/01/04 16:44:29;;;;;;;6.07;1.27;;;;;;;3.32;96.03;99642.25;4889877;29;20119;-76
2022/01/04 16:46:56;;;;;;;8.18;0.95;;;;;;;3.42;95.58;99651.75;4910583;29;20044;-76
2022/01/04 16:49:22;;;;;;;4.03;0.98;;;;;;;3.38;95.57;99649.53;4903315;29;20088;-76
2022/01/04 16:51:48;;;;;;;1.80;1.00;;;;;;;3.39;95.58;99651.19;4875325;29;20055;-76
2022/01/04 16:54:15;;;;;;;2.35;1.25;;;;;;;3.36;94.80;99654.88;4907424;29;20479;-76
2022/01/04 16:56:41;;;;;;;3.30;1.00;;;;;;;3.30;94.96;99647.59;4905371;29;20042;-76
2022/01/04 16:59:07;;;;;;;4.75;1.15;;;;;;;3.02;93.95;99599.59;4893671;29;20036;-77
2022/01/04 17:01:33;;;;;;;4.20;1.10;;;;;;;3.19;94.75;99642.47;4909603;29;20378;-76
2022/01/04 17:03:59;;;;;;;3.47;0.82;;;;;;;3.14;94.78;99642.06;4894342;29;20337;-76
2022/01/04 17:06:25;;;;;;;3.15;0.95;;;;;;;3.15;94.71;99643.69;4890961;29;20115;-76
2022/01/04 17:08:54;;;;;;;3.35;0.90;;;;;;;3.10;94.05;99644.09;4911806;29;20168;-77
2022/01/04 17:11:33;;;;;;;4.43;0.60;;;;;;;3.01;94.86;99652.69;4894576;29;20036;-76
2022/01/04 17:16:42;;;;;;;6.30;2.15;;;;;;;2.93;94.56;99655.13;4911164;29;20551;-76
2022/01/04 17:19:08;;;;;;;2.60;1.00;;;;;;;2.81;95.20;99647.41;4898289;29;20123;-76
2022/01/04 17:21:33;;;;;;;3.20;1.55;;;;;;;2.71;95.50;99641.31;4894553;29;20108;-76
2022/01/04 17:24:02;;;;;;;3.10;1.10;;;;;;;2.68;95.79;99641.56;4911550;29;20044;-76
2022/01/04 17:26:28;;;;;;;3.80;1.05;;;;;;;2.60;96.31;99641.38;4911177;29;20144;-76
2022/01/04 17:28:54;;;;;;;3.17;1.70;;;;;;;2.57;96.36;99649.44;4913749;29;20036;-76
2022/01/04 17:31:19;;;;;;;4.25;2.80;;;;;;;2.50;96.83;99643.09;4903761;29;20434;-76
2022/01/04 17:33:45;;;;;;;8.13;1.90;;;;;;;2.55;97.17;99654.78;4911506;29;20044;-76
2022/01/04 17:36:10;;;;;;;5.70;1.77;;;;;;;2.53;97.44;99656.69;4905627;29;20399;-76
2022/01/04 17:38:36;;;;;;;11.00;1.83;;;;;;;2.52;97.66;99662.84;4906460;29;20646;-76
2022/01/04 17:41:02;;;;;;;6.57;1.60;;;;;;;2.51;98.33;99660.38;4907674;29;20044;-76
2022/01/04 17:43:27;;;;;;;7.88;1.95;;;;;;;2.48;97.21;99664.03;4906634;29;20028;-76
2022/01/04 17:45:56;;;;;;;9.50;2.03;;;;;;;2.46;97.43;99652.94;4895123;29;20032;-76
2022/01/04 17:48:22;;;;;;;3.72;1.40;;;;;;;2.47;97.76;99665.00;4912646;29;20068;-77
2022/01/04 17:50:49;;;;;;;4.97;1.17;;;;;;;2.47;97.22;99655.41;4906109;29;20294;-76
2022/01/04 17:53:15;;;;;;;5.70;0.82;;;;;;;2.51;97.18;99660.38;4908327;29;21791;-77
2022/01/04 17:55:42;;;;;;;3.92;1.00;;;;;;;2.38;96.09;99635.34;4910776;29;20452;-76
2022/01/04 17:58:08;;;;;;;8.55;1.00;;;;;;;2.59;95.87;99664.00;4890782;29;20032;-76
2022/01/04 18:00:35;;;;;;;1.92;0.90;;;;;;;2.62;95.81;99666.34;4907652;29;20103;-75
2022/01/04 18:03:01;;;;;;;3.00;0.98;;;;;;;2.57;96.13;99667.66;4905481;29;20475;-75
2022/01/04 18:05:27;;;;;;;2.08;0.43;;;;;;;2.54;96.11;99663.53;4892717;29;20394;-76
2022/01/04 18:07:52;;;;;;;2.97;0.85;;;;;;;2.39;96.60;99642.19;4907638;29;20032;-76
2022/01/04 18:10:19;;;;;;;7.30;1.33;;;;;;;2.55;96.86;99672.19;4908242;29;20032;-76
2022/01/04 18:12:45;;;;;;;4.00;0.73;;;;;;;2.66;96.47;99690.38;4894532;29;20040;-76
2022/01/04 18:15:10;;;;;;;3.70;0.80;;;;;;;2.73;97.61;99691.50;4909318;29;20059;-76
2022/01/04 18:17:36;;;;;;;5.03;1.13;;;;;;;2.68;97.01;99698.88;4911067;29;20056;-76
2022/01/04 18:20:03;;;;;;;1.55;0.75;;;;;;;2.70;97.23;99670.94;4898352;29;20097;-76
2022/01/04 18:22:28;;;;;;;4.18;0.80;;;;;;;2.80;96.99;99674.41;4904371;29;20058;-76
2022/01/04 18:24:54;;;;;;;3.63;0.90;;;;;;;2.80;97.29;99661.38;4910021;29;20060;-76
2022/01/04 18:27:21;;;;;;;6.43;1.55;;;;;;;2.90;97.16;99666.63;4905544;29;20040;-77
2022/01/04 18:29:47;;;;;;;2.67;0.63;;;;;;;2.86;96.70;99667.84;4903917;29;20088;-76
2022/01/04 18:32:13;;;;;;;0.20;0.20;;;;;;;2.77;96.33;99659.03;4904786;29;20036;-76
2022/01/04 18:34:38;;;;;;;8.50;0.95;;;;;;;2.61;96.37;99643.03;4906454;29;20439;-76
2022/01/04 18:37:04;;;;;;;1.90;0.80;;;;;;;2.67;96.49;99661.56;4868644;29;20059;-75
2022/01/04 18:39:30;;;;;;;1.73;1.02;;;;;;;2.62;95.28;99663.75;4902519;29;20036;-76
2022/01/04 18:41:56;;;;;;;7.53;0.60;;;;;;;2.56;95.06;99663.44;4900382;29;20132;-76
2022/01/04 18:44:21;;;;;;;5.25;1.25;;;;;;;2.50;94.81;99666.53;4906995;29;20058;-76
2022/01/04 18:46:46;;;;;;;3.90;0.68;;;;;;;2.48;94.47;99664.03;4902466;29;20565;-76
2022/01/04 18:49:12;;;;;;;5.05;1.05;;;;;;;2.47;94.72;99654.59;4904647;29;20478;-77
2022/01/04 18:51:37;;;;;;;5.25;1.92;;;;;;;2.41;93.92;99653.31;4902641;29;20032;-76
2022/01/04 18:54:05;;;;;;;3.83;1.00;;;;;;;2.35;94.33;99651.25;4883838;29;20096;-76
2022/01/04 18:56:31;;;;;;;3.95;0.95;;;;;;;2.32;94.14;99661.91;4907034;29;20095;-76
2022/01/04 18:58:58;;;;;;;4.93;1.33;;;;;;;2.24;94.29;99662.53;4905736;29;20107;-75
2022/01/04 19:01:24;;;;;;;1.40;0.95;;;;;;;2.28;95.05;99678.72;4879799;29;20036;-75
2022/01/04 19:03:51;;;;;;;2.92;1.20;;;;;;;2.26;95.64;99672.81;4911519;29;20531;-75
2022/01/04 19:06:16;;;;;;;6.20;2.65;;;;;;;2.28;94.79;99675.28;4917381;29;20082;-76
2022/01/04 19:08:42;;;;;;;4.25;1.20;;;;;;;2.19;94.71;99661.25;4914940;29;20371;-75
2022/01/04 19:11:07;;;;;;;6.63;1.25;;;;;;;2.13;95.06;99648.72;4916853;29;20028;-75
2022/01/04 19:13:33;;;;;;;7.30;1.05;;;;;;;2.24;95.07;99669.50;4899658;29;20079;-76
2022/01/04 19:16:00;;;;;;;5.65;0.77;;;;;;;2.26;96.22;99673.66;4913471;29;20031;-75
2022/01/04 19:18:31;;;;;;;3.80;1.20;;;;;;;2.15;95.99;99658.06;4910978;29;20040;-75
2022/01/04 19:20:56;;;;;;;6.22;0.80;;;;;;;2.30;95.83;99678.59;4896638;29;20052;-75
2022/01/04 19:23:23;;;;;;;4.70;1.15;;;;;;;2.16;95.26;99671.91;4914190;29;20067;-76
2022/01/04 19:25:48;;;;;;;2.00;1.42;;;;;;;2.19;95.99;99669.88;4898010;29;20035;-75
2022/01/04 19:28:14;;;;;;;6.18;1.13;;;;;;;2.18;96.53;99670.03;4913408;29;20407;-75
2022/01/04 19:30:39;;;;;;;2.38;1.42;;;;;;;2.13;96.39;99669.56;4910596;29;20138;-76
2022/01/04 19:38:15;;;;;;;3.67;1.95;;;;;;;2.10;96.82;99675.03;4910393;29;20139;-76
2022/01/04 19:40:41;;;;;;;5.32;1.92;;;;;;;2.02;97.46;99663.44;4897570;29;20408;-75
2022/01/04 19:43:11;;;;;;;4.40;2.22;;;;;;;1.98;97.67;99654.25;4915907;29;20542;-75
2022/01/04 19:45:38;;;;;;;2.72;1.38;;;;;;;2.06;98.59;99667.44;4911591;29;20076;-76
2022/01/04 19:48:04;;;;;;;6.90;2.92;;;;;;;1.88;98.61;99642.91;4912799;29;20080;-75
2022/01/04 19:50:30;;;;;;;3.72;1.10;;;;;;;1.96;98.36;99661.34;4897425;29;20052;-75
2022/01/04 19:52:56;;;;;;;2.53;1.40;;;;;;;1.91;98.66;99653.06;4912871;29;20067;-75
2022/01/04 19:55:22;;;;;;;4.50;2.85;;;;;;;1.89;98.82;99660.16;4913102;29;20063;-75
2022/01/04 19:57:47;;;;;;;11.45;2.75;;;;;;;1.85;98.99;99653.56;4913989;29;20083;-75
2022/01/04 20:00:14;;;;;;;4.43;2.22;;;;;;;1.84;98.55;99657.94;4912612;29;20068;-75
2022/01/04 20:02:40;;;;;;;7.03;3.95;;;;;;;1.85;98.21;99663.97;4899112;29;20024;-74
2022/01/04 20:05:06;;;;;;;10.63;2.50;;;;;;;1.84;98.86;99662.31;4910206;29;20544;-74
2022/01/04 20:07:33;;;;;;;9.95;3.60;;;;;;;1.84;98.99;99670.94;4907936;29;20508;-75
2022/01/04 20:10:05;;;;;;;9.45;3.53;;;;;;;1.81;98.80;99662.59;4895116;29;20040;-75
2022/01/04 20:12:31;;;;;;;18.02;6.95;;;;;;;1.75;98.78;99671.69;4900609;29;20428;-75
2022/01/04 20:14:56;;;;;;;9.73;3.35;;;;;;;1.64;99.49;99661.31;4914559;29;20028;-75
2022/01/04 20:17:22;;;;;;;23.83;13.50;;;;;;;1.61;100.00;99674.53;4911907;29;20543;-75
2022/01/04 20:19:47;;;;;;;6.15;2.15;;;;;;;1.42;100.00;99659.59;4897145;29;20043;-75
2022/01/04 20:22:13;;;;;;;6.78;3.08;;;;;;;1.29;100.00;99648.50;4913182;29;20035;-76
2022/01/04 20:24:40;;;;;;;7.70;1.33;;;;;;;1.38;100.00;99674.59;4895225;29;20472;-75
2022/01/04 20:27:06;;;;;;;6.63;2.30;;;;;;;1.41;100.00;99670.91;4913814;29;20041;-77
2022/01/04 20:29:32;;;;;;;5.95;2.20;;;;;;;1.33;100.00;99671.53;4914838;29;20028;-76
2022/01/04 20:31:57;;;;;;;3.50;1.50;;;;;;;1.25;100.00;99665.28;4893493;29;20059;-76
2022/01/04 20:34:23;;;;;;;10.00;3.95;;;;;;;1.28;100.00;99670.22;4885131;29;20036;-76
2022/01/04 20:36:49;;;;;;;13.38;4.65;;;;;;;1.27;100.00;99673.78;4913251;29;20034;-75
2022/01/04 20:39:15;;;;;;;12.20;3.35;;;;;;;1.28;100.00;99691.03;4896946;29;20047;-76
2022/01/04 20:41:41;;;;;;;4.95;2.97;;;;;;;1.28;100.00;99678.03;4913136;29;20111;-76
2022/01/04 20:44:07;;;;;;;8.32;2.45;;;;;;;1.28;100.00;99680.63;4915152;29;20035;-76
2022/01/04 20:46:33;;;;;;;5.70;2.17;;;;;;;1.42;100.00;99698.59;4894837;29;20140;-76
2022/01/04 20:48:58;;;;;;;5.30;1.65;;;;;;;1.47;100.00;99690.44;4898475;29;20071;-76
2022/01/04 20:51:24;;;;;;;8.88;1.73;;;;;;;1.56;100.00;99698.31;4903637;29;20040;-76
2022/01/04 20:53:49;;;;;;;6.25;2.35;;;;;;;1.42;100.00;99677.78;4897865;29;20076;-76
2022/01/04 20:56:14;;;;;;;3.58;1.25;;;;;;;1.54;100.00;99702.00;4872134;29;20481;-76
2022/01/04 20:58:40;;;;;;;2.97;1.45;;;;;;;1.53;100.00;99698.56;4913743;29;20067;-76
2022/01/04 21:01:07;;;;;;;4.90;1.42;;;;;;;1.55;100.00;99696.69;4883576;29;20091;-76
2022/01/04 21:03:33;;;;;;;11.23;1.83;;;;;;;1.44;100.00;99670.69;4919571;29;20531;-75